North Star — XPD6470 — position and weather

sailwx.info

Track history (hours):
 
Tides and Currents Weather Stations Pressure Air Temp Water Temp Dewpoint Dewpoint Depression Visibility Wind Speed Wind Dir Waves Ship Positions

North Star

Last reported at 2018-Apr-14 16:00 UTC. Time now 2018-Jun-24 05:26 UTC.
Position N 14°15' W 060°56'.
Warning: this ship's position is months out of date.

Length 13 m.

Type: Sailing vessel. MMSI: 219008067.

Date/timePositionNaut miles runAvg speedWind from/ knotsBaromVisibWave heightAir tempDewpointWater temp
2018-Apr-14 16:00N 14°15' W 060°56'4 7.9
2018-Apr-14 15:30N 14°19' W 060°55'4 7.5
2018-Apr-14 15:00N 14°23' W 060°54'3 6.7
2018-Apr-14 14:30N 14°26' W 060°54'0 0.8
2018-Apr-14 13:58N 14°26' W 060°53'0 0.3
2018-Apr-14 13:30N 14°26' W 060°53'2 4.6
2018-Apr-14 13:00N 14°25' W 060°55'4 7.8
2018-Apr-14 12:28N 14°20' W 060°56'3 6.9
2018-Apr-14 12:00N 14°17' W 060°57'4 7.5
2018-Apr-14 11:30N 14°21' W 060°56'3 6.8
2018-Apr-14 11:00N 14°24' W 060°55'2 4.6
2018-Apr-14 10:29N 14°26' W 060°53'0 0.0
2018-Apr-14 00:34N 14°26' W 060°53'0 0.0
2018-Apr-14 00:25N 14°26' W 060°53'0 0.0
2018-Apr-13 23:58N 14°26' W 060°53'0 0.0
2018-Apr-13 23:28N 14°26' W 060°53'0 0.0
2018-Apr-13 22:58N 14°26' W 060°53'0 0.0
2018-Apr-13 22:28N 14°26' W 060°53'0 0.0
2018-Apr-13 21:58N 14°26' W 060°53'0 0.0
2018-Apr-13 21:28N 14°26' W 060°53'0 0.0
2018-Apr-13 20:58N 14°26' W 060°53'1 1.6
2018-Apr-13 20:30N 14°27' W 060°53'2 3.5
2018-Apr-13 20:00N 14°28' W 060°52'0 0.0
2018-Apr-13 19:30N 14°28' W 060°52'0 0.0
2018-Apr-13 19:00N 14°28' W 060°52'0 0.0
2018-Apr-13 18:30N 14°28' W 060°52'0 0.0
2018-Apr-13 18:00N 14°28' W 060°52'0 0.0
2018-Apr-13 17:27N 14°28' W 060°52'0 0.0
2018-Apr-13 17:00N 14°28' W 060°52'0 0.0
2018-Apr-13 16:27N 14°28' W 060°52'1 1.6
2018-Apr-13 16:00N 14°28' W 060°53'2 3.6
2018-Apr-13 15:30N 14°27' W 060°54'1 1.8
2018-Apr-13 14:53N 14°27' W 060°53'1 3.4
2018-Apr-13 14:29N 14°28' W 060°52'  
Track history (hours):
 
Tides and Currents Weather Stations Pressure Air Temp Water Temp Dewpoint Dewpoint Depression Visibility Wind Speed Wind Dir Waves Ship Positions

North Star

Last reported at 2018-Apr-14 16:00 UTC. Time now 2018-Jun-24 05:26 UTC.
Position N 14°15' W 060°56'.
Warning: this ship's position is months out of date.

Length 13 m.

Type: Sailing vessel. MMSI: 219008067.

Date/timePositionNaut miles runAvg speedWind from/ knotsBaromVisibWave heightAir tempDewpointWater temp
2018-Apr-14 16:00N 14°15' W 060°56'4 7.9
2018-Apr-14 15:30N 14°19' W 060°55'4 7.5
2018-Apr-14 15:00N 14°23' W 060°54'3 6.7
2018-Apr-14 14:30N 14°26' W 060°54'0 0.8
2018-Apr-14 13:58N 14°26' W 060°53'0 0.3
2018-Apr-14 13:30N 14°26' W 060°53'2 4.6
2018-Apr-14 13:00N 14°25' W 060°55'4 7.8
2018-Apr-14 12:28N 14°20' W 060°56'3 6.9
2018-Apr-14 12:00N 14°17' W 060°57'4 7.5
2018-Apr-14 11:30N 14°21' W 060°56'3 6.8
2018-Apr-14 11:00N 14°24' W 060°55'2 4.6
2018-Apr-14 10:29N 14°26' W 060°53'0 0.0
2018-Apr-14 00:34N 14°26' W 060°53'0 0.0
2018-Apr-14 00:25N 14°26' W 060°53'0 0.0
2018-Apr-13 23:58N 14°26' W 060°53'0 0.0
2018-Apr-13 23:28N 14°26' W 060°53'0 0.0
2018-Apr-13 22:58N 14°26' W 060°53'0 0.0
2018-Apr-13 22:28N 14°26' W 060°53'0 0.0
2018-Apr-13 21:58N 14°26' W 060°53'0 0.0
2018-Apr-13 21:28N 14°26' W 060°53'0 0.0
2018-Apr-13 20:58N 14°26' W 060°53'1 1.6
2018-Apr-13 20:30N 14°27' W 060°53'2 3.5
2018-Apr-13 20:00N 14°28' W 060°52'0 0.0
2018-Apr-13 19:30N 14°28' W 060°52'0 0.0
2018-Apr-13 19:00N 14°28' W 060°52'0 0.0
2018-Apr-13 18:30N 14°28' W 060°52'0 0.0
2018-Apr-13 18:00N 14°28' W 060°52'0 0.0
2018-Apr-13 17:27N 14°28' W 060°52'0 0.0
2018-Apr-13 17:00N 14°28' W 060°52'0 0.0
2018-Apr-13 16:27N 14°28' W 060°52'1 1.6
2018-Apr-13 16:00N 14°28' W 060°53'2 3.6
2018-Apr-13 15:30N 14°27' W 060°54'1 1.8
2018-Apr-13 14:53N 14°27' W 060°53'1 3.4
2018-Apr-13 14:29N 14°28' W 060°52'  

Dump ship's entire track history